Time;durP1;ratioP1;P1;durP2;ratioP2;P2;SDS_P1;SDS_P2;PMS_P1;PMS_P2;Temp;Humidity;BMP_temperature;BMP_pressure;BME280_temperature;BME280_humidity;BME280_pressure;Samples;Min_cycle;Max_cycle;Signal;HPM_P1;HPM_P2
2022/01/30 00:02:00;;;;;;;;;;;;;;;-2.70;81.14;97423.47;5063411;28;19924;-61
2022/01/30 00:04:26;;;;;;;;;;;;;;;-3.23;82.18;97342.91;5064511;28;19928;-60
2022/01/30 00:06:53;;;;;;;;;;;;;;;-2.64;81.23;97416.94;5063334;28;19932;-64
2022/01/30 00:09:22;;;;;;;;;;;;;;;-2.69;81.46;97408.84;5064564;28;20379;-62
2022/01/30 00:11:54;;;;;;;;;;;;;;;-2.80;82.14;97403.75;5082701;28;19924;-61
2022/01/30 00:14:23;;;;;;;;;;;;;;;-2.81;82.24;97400.22;5084879;28;19924;-60
2022/01/30 00:16:57;;;;;;;;;;;;;;;-2.89;82.83;97410.81;5083541;28;19923;-65
2022/01/30 00:22:12;;;;;;;;;;;;;;;-2.70;81.33;97399.09;5085092;28;19924;-59
2022/01/30 00:24:58;;;;;;;;;;;;;;;-2.70;80.73;97401.78;5084482;28;19924;-60
2022/01/30 00:27:34;;;;;;;;;;;;;;;-2.81;80.94;97400.22;5082982;28;20374;-61
2022/01/30 00:30:02;;;;;;;;;;;;;;;-2.75;80.90;97401.81;5082905;28;19924;-60
2022/01/30 00:32:29;;;;;;;;;;;;;;;-2.75;81.26;97399.09;5084269;28;19934;-63
2022/01/30 00:35:15;;;;;;;;;;;;;;;-2.67;81.24;97395.81;5083527;28;19927;-61
2022/01/30 00:37:43;;;;;;;;;;;;;;;-2.73;81.82;97391.50;5083249;28;19924;-59
2022/01/30 00:40:30;;;;;;;;;;;;;;;-2.69;81.98;97387.16;5084446;28;19924;-61
2022/01/30 00:42:57;;;;;;;;;;;;;;;-2.91;82.21;97373.16;5084220;28;19927;-60
2022/01/30 00:45:24;;;;;;;;;;;;;;;-2.90;82.29;97377.47;5084158;28;19924;-62
2022/01/30 00:47:51;;;;;;;;;;;;;;;-2.97;81.92;97368.81;5084102;28;20010;-61
2022/01/30 00:50:17;;;;;;;;;;;;;;;-3.00;82.65;97366.66;5084026;28;19928;-61
2022/01/30 00:52:49;;;;;;;;;;;;;;;-3.09;82.90;97360.22;5084400;28;20425;-62
2022/01/30 00:55:16;;;;;;;;;;;;;;;-2.97;82.39;97363.41;5082892;28;19923;-62
2022/01/30 00:57:42;;;;;;;;;;;;;;;-2.95;82.63;97353.13;5084088;28;19923;-63
2022/01/30 01:00:09;;;;;;;;;;;;;;;-2.91;81.74;97346.06;5083789;28;19924;-62
2022/01/30 01:02:36;;;;;;;;;;;;;;;-2.95;82.01;97339.56;5082838;28;20317;-60
2022/01/30 01:05:05;;;;;;;;;;;;;;;-2.95;81.79;97328.72;5083910;28;19924;-63
2022/01/30 01:07:33;;;;;;;;;;;;;;;-2.97;82.10;97314.63;5082461;28;20509;-62
2022/01/30 01:23:31;;;;;;;;;;;;;;;-3.11;81.01;97303.59;5067974;28;19936;-62
2022/01/30 01:25:59;;;;;;;;;;;;;;;-3.17;81.67;97298.47;5066425;28;19962;-61
2022/01/30 01:28:26;;;;;;;;;;;;;;;-3.08;82.28;97285.97;5067966;28;19924;-62
2022/01/30 01:30:53;;;;;;;;;;;;;;;-3.04;81.94;97286.22;5066289;28;20299;-62
2022/01/30 01:33:21;;;;;;;;;;;;;;;-3.14;82.00;97276.25;5067948;28;19946;-62
2022/01/30 01:35:48;;;;;;;;;;;;;;;-3.29;82.47;97281.75;5067537;28;19929;-59
2022/01/30 01:38:15;;;;;;;;;;;;;;;-3.26;82.58;97273.06;5065962;28;19961;-60
2022/01/30 01:40:49;;;;;;;;;;;;;;;-3.31;82.52;97264.97;5067043;28;19931;-60
2022/01/30 01:43:17;;;;;;;;;;;;;;;-3.18;82.45;97262.44;5065151;28;19925;-60
2022/01/30 01:45:46;;;;;;;;;;;;;;;-3.33;82.90;97261.69;5065549;28;19928;-60
2022/01/30 01:48:14;;;;;;;;;;;;;;;-3.45;83.63;97250.38;5067042;28;20396;-62
2022/01/30 01:50:45;;;;;;;;;;;;;;;-3.45;83.57;97242.28;5067154;28;19931;-60
2022/01/30 01:53:12;;;;;;;;;;;;;;;-3.47;83.63;97252.56;5067321;28;20376;-60
2022/01/30 01:55:40;;;;;;;;;;;;;;;-3.31;82.54;97243.28;5067436;28;20445;-60
2022/01/30 01:58:07;;;;;;;;;;;;;;;-3.32;82.21;97247.09;5065549;28;19925;-62
2022/01/30 02:00:34;;;;;;;;;;;;;;;-3.32;81.56;97249.81;5066913;28;20361;-62
2022/01/30 02:03:02;;;;;;;;;;;;;;;-3.44;81.72;97246.59;5065229;28;20015;-59
2022/01/30 02:05:32;;;;;;;;;;;;;;;-3.39;81.51;97246.56;5066596;28;19982;-61
2022/01/30 02:26:56;;;;;;;;;;;;;;;-3.62;83.06;97190.38;5086880;28;19958;-61
2022/01/30 02:29:22;;;;;;;;;;;;;;;-3.71;83.63;97194.72;5086870;28;20512;-62
2022/01/30 02:31:49;;;;;;;;;;;;;;;-3.64;83.33;97190.66;5086988;28;19924;-62
2022/01/30 02:34:15;;;;;;;;;;;;;;;-3.65;83.97;97180.88;5085154;28;19924;-62
2022/01/30 02:36:48;;;;;;;;;;;;;;;-3.70;84.61;97174.69;5086613;28;20310;-63
2022/01/30 02:39:15;;;;;;;;;;;;;;;-3.68;84.83;97172.50;5086155;28;19923;-59
2022/01/30 02:41:42;;;;;;;;;;;;;;;-3.68;84.37;97169.81;5085100;28;19924;-61
2022/01/30 02:46:40;;;;;;;;;;;;;;;-3.62;84.36;97179.53;5086378;28;19946;-59
2022/01/30 02:49:46;;;;;;;;;;;;;;;-3.56;83.11;97181.13;5086771;28;19953;-61
2022/01/30 02:52:04;;;;;;;;;;;;;;;-3.64;82.41;97179.00;5084367;28;19924;-59
2022/01/30 02:54:31;;;;;;;;;;;;;;;-3.72;82.76;97183.09;5086382;28;19924;-63
2022/01/30 02:56:58;;;;;;;;;;;;;;;-3.74;84.34;97179.03;5084732;28;20314;-61
2022/01/30 02:59:25;;;;;;;;;;;;;;;-3.78;84.08;97172.56;5086686;28;19924;-59
2022/01/30 03:01:51;;;;;;;;;;;;;;;-3.78;84.61;97161.75;5086512;28;19924;-61
2022/01/30 03:04:18;;;;;;;;;;;;;;;-3.66;83.56;97164.94;5084872;28;19934;-62
2022/01/30 03:06:45;;;;;;;;;;;;;;;-3.65;83.09;97161.16;5084480;28;19923;-60
2022/01/30 03:09:12;;;;;;;;;;;;;;;-3.72;82.85;97152.50;5086074;28;20370;-61
2022/01/30 03:11:38;;;;;;;;;;;;;;;-3.75;83.27;97161.19;5070216;28;19935;-62
2022/01/30 03:14:05;;;;;;;;;;;;;;;-3.88;83.64;97153.66;5064053;28;19924;-62
2022/01/30 03:16:32;;;;;;;;;;;;;;;-4.00;84.47;97150.47;5065506;28;20197;-59
2022/01/30 03:19:00;;;;;;;;;;;;;;;-4.11;84.75;97146.94;5066231;28;19935;-60
2022/01/30 03:21:27;;;;;;;;;;;;;;;-4.14;85.28;97141.31;5065910;28;19924;-59
2022/01/30 03:23:54;;;;;;;;;;;;;;;-4.11;84.82;97138.06;5065524;28;20326;-60
2022/01/30 03:26:20;;;;;;;;;;;;;;;-4.16;85.65;97138.06;5065658;28;19925;-61
2022/01/30 03:28:49;;;;;;;;;;;;;;;-4.19;86.03;97133.22;5064243;28;20288;-59
2022/01/30 03:31:18;;;;;;;;;;;;;;;-4.29;86.51;97133.22;5064575;28;19932;-60
2022/01/30 03:33:45;;;;;;;;;;;;;;;-4.21;86.48;97129.97;5065312;28;19924;-61
2022/01/30 03:36:12;;;;;;;;;;;;;;;-4.27;86.82;97109.44;5065289;28;19924;-61
2022/01/30 03:38:38;;;;;;;;;;;;;;;-4.44;87.18;97104.31;5065363;28;20315;-62
2022/01/30 03:41:05;;;;;;;;;;;;;;;-4.33;87.94;97099.72;5065108;28;19925;-62
2022/01/30 03:43:31;;;;;;;;;;;;;;;-4.32;87.30;97101.34;5064562;28;20418;-60
2022/01/30 03:45:59;;;;;;;;;;;;;;;-4.51;87.91;97086.78;5065014;28;19928;-59
2022/01/30 03:48:25;;;;;;;;;;;;;;;-4.56;88.64;97094.91;5065205;28;19947;-61
2022/01/30 03:50:52;;;;;;;;;;;;;;;-4.48;88.74;97088.94;5063337;28;19924;-61
2022/01/30 03:53:18;;;;;;;;;;;;;;;-4.44;88.13;97093.50;5065008;28;19962;-63
2022/01/30 03:55:45;;;;;;;;;;;;;;;-4.50;87.58;97099.22;5063670;28;19935;-62
2022/01/30 03:58:12;;;;;;;;;;;;;;;-4.48;87.71;97092.47;5064954;28;20434;-61
2022/01/30 04:00:38;;;;;;;;;;;;;;;-4.37;87.08;97093.22;5064561;28;19932;-62
2022/01/30 04:03:05;;;;;;;;;;;;;;;-4.51;86.04;97086.78;5064621;28;20100;-61
2022/01/30 04:05:32;;;;;;;;;;;;;;;-4.63;85.66;97078.97;5063963;28;20399;-62
2022/01/30 04:08:05;;;;;;;;;;;;;;;-4.52;85.25;97075.16;5064452;28;20331;-61
2022/01/30 04:10:33;;;;;;;;;;;;;;;-4.69;85.12;97075.47;5068628;28;20441;-61
2022/01/30 04:12:59;;;;;;;;;;;;;;;-4.80;86.63;97073.88;5083391;28;19939;-62
2022/01/30 04:15:26;;;;;;;;;;;;;;;-4.68;86.60;97066.28;5083814;28;19947;-61
2022/01/30 04:17:53;;;;;;;;;;;;;;;-4.69;87.39;97075.47;5084563;28;19924;-61
2022/01/30 04:20:19;;;;;;;;;;;;;;;-4.60;86.83;97081.16;5083056;28;20371;-59
2022/01/30 04:22:46;;;;;;;;;;;;;;;-4.62;86.63;97086.00;5084128;28;19924;-62
2022/01/30 04:25:12;;;;;;;;;;;;;;;-4.73;86.92;97085.19;5084550;28;19927;-60
2022/01/30 04:27:39;;;;;;;;;;;;;;;-4.74;87.18;97088.97;5084309;28;19946;-59
2022/01/30 04:30:06;;;;;;;;;;;;;;;-4.59;86.00;97084.63;5083261;28;19924;-62
2022/01/30 04:32:33;;;;;;;;;;;;;;;-4.60;85.88;97072.22;5084074;28;19924;-63
2022/01/30 04:35:10;;;;;;;;;;;;;;;-4.59;85.67;97065.72;5084188;28;19924;-62
2022/01/30 05:05:20;;;;;;;;;;;;;;;-4.94;90.15;97042.28;5083966;28;19971;-62
2022/01/30 05:07:41;;;;;;;;;;;;;;;-4.98;90.60;97039.31;5084037;28;19924;-62
2022/01/30 05:10:08;;;;;;;;;;;;;;;-4.82;90.36;97038.22;5080017;28;20098;-62
2022/01/30 05:12:44;;;;;;;;;;;;;;;-4.68;90.00;97033.06;5062268;28;19930;-62
2022/01/30 05:15:11;;;;;;;;;;;;;;;-4.75;89.49;97022.53;5063308;28;19936;-60
2022/01/30 05:17:37;;;;;;;;;;;;;;;-4.76;89.66;97020.91;5063489;28;19947;-62
2022/01/30 05:20:04;;;;;;;;;;;;;;;-4.57;88.72;97023.03;5061877;28;19931;-61
2022/01/30 05:22:31;;;;;;;;;;;;;;;-4.56;86.50;97017.34;5063159;28;19924;-61
2022/01/30 05:24:57;;;;;;;;;;;;;;;-4.70;86.95;97009.03;5063637;28;19932;-60
2022/01/30 05:27:24;;;;;;;;;;;;;;;-4.65;86.91;97011.69;5063721;28;19924;-59
2022/01/30 05:29:51;;;;;;;;;;;;;;;-4.62;86.67;97005.72;5063145;28;20379;-62
2022/01/30 05:32:17;;;;;;;;;;;;;;;-4.55;86.89;96983.03;5063258;28;19924;-61
2022/01/30 05:34:44;;;;;;;;;;;;;;;-4.42;84.66;96994.06;5063360;28;20014;-59
2022/01/30 05:37:14;;;;;;;;;;;;;;;-4.46;84.33;96981.38;5062774;28;19931;-59
2022/01/30 05:39:41;;;;;;;;;;;;;;;-4.39;84.95;96949.47;5063733;28;20761;-60
2022/01/30 05:42:08;;;;;;;;;;;;;;;-4.30;84.87;96942.38;5063439;28;19924;-60
2022/01/30 05:44:56;;;;;;;;;;;;;;;-4.29;83.31;96954.81;5063750;28;19947;-61
2022/01/30 05:47:30;;;;;;;;;;;;;;;-4.21;82.46;96962.34;5062980;28;20720;-59
2022/01/30 05:49:56;;;;;;;;;;;;;;;-4.20;82.45;96985.56;5063449;28;19924;-59
2022/01/30 05:52:24;;;;;;;;;;;;;;;-4.14;82.54;96962.84;5062819;28;19931;-62
2022/01/30 05:54:50;;;;;;;;;;;;;;;-4.19;83.23;96946.66;5062319;28;19924;-61
2022/01/30 05:57:18;;;;;;;;;;;;;;;-4.13;83.14;96961.75;5066754;28;19928;-62
2022/01/30 05:59:44;;;;;;;;;;;;;;;-4.04;83.14;96946.53;5067134;28;19947;-59
2022/01/30 06:02:11;;;;;;;;;;;;;;;-3.91;82.90;96967.56;5066782;28;19969;-59
2022/01/30 06:04:38;;;;;;;;;;;;;;;-4.03;82.38;96970.59;5067165;28;20350;-60
2022/01/30 06:07:06;;;;;;;;;;;;;;;-3.78;83.19;96956.13;5065192;28;19924;-62
2022/01/30 06:09:38;;;;;;;;;;;;;;;-3.72;83.44;96939.56;5066589;28;20310;-60
2022/01/30 06:12:05;;;;;;;;;;;;;;;-3.48;82.69;96928.81;5084377;28;19924;-61
2022/01/30 06:14:32;;;;;;;;;;;;;;;-3.33;82.01;96931.38;5086811;28;19923;-62
2022/01/30 06:16:59;;;;;;;;;;;;;;;-3.21;81.80;96931.81;5086437;28;19935;-62
2022/01/30 06:19:26;;;;;;;;;;;;;;;-3.26;80.87;96921.03;5086805;28;20306;-59
2022/01/30 06:21:52;;;;;;;;;;;;;;;-2.84;78.08;96931.97;5086830;28;20387;-60
2022/01/30 06:24:19;;;;;;;;;;;;;;;-2.88;77.58;96938.25;5086131;28;19923;-61
2022/01/30 06:26:45;;;;;;;;;;;;;;;-2.82;77.45;96943.31;5086954;28;19924;-63
2022/01/30 06:29:12;;;;;;;;;;;;;;;-2.56;76.62;96947.34;5085705;28;19946;-61
2022/01/30 06:31:38;;;;;;;;;;;;;;;-2.46;76.17;96939.09;5086904;28;19928;-61
2022/01/30 06:34:05;;;;;;;;;;;;;;;-2.32;76.14;96959.00;5086711;28;19930;-61
2022/01/30 06:36:32;;;;;;;;;;;;;;;-2.18;75.85;96970.75;5084809;28;19935;-60
2022/01/30 06:38:58;;;;;;;;;;;;;;;-1.96;74.72;96973.69;5086690;28;19928;-59
2022/01/30 06:41:25;;;;;;;;;;;;;;;-1.88;73.56;96962.19;5086936;28;19924;-61
2022/01/30 06:43:51;;;;;;;;;;;;;;;-1.68;73.77;96953.78;5086232;28;20318;-59
2022/01/30 06:46:18;;;;;;;;;;;;;;;-1.43;73.68;96949.03;5086350;28;19927;-62
2022/01/30 06:48:45;;;;;;;;;;;;;;;-1.18;73.02;96940.44;5084618;28;19931;-61
2022/01/30 06:51:11;;;;;;;;;;;;;;;-1.23;73.75;96921.53;5086634;28;19924;-64
2022/01/30 06:53:38;;;;;;;;;;;;;;;-1.01;72.61;96929.84;5086324;28;20140;-62
2022/01/30 06:56:06;;;;;;;;;;;;;;;-0.90;71.67;96920.38;5086019;28;19931;-60
2022/01/30 06:58:32;;;;;;;;;;;;;;;-0.54;71.50;96896.84;5085714;28;19923;-62
2022/01/30 07:00:59;;;;;;;;;;;;;;;-0.23;70.30;96897.81;5086223;28;19932;-60
2022/01/30 07:03:30;;;;;;;;;;;;;;;0.10;68.27;96891.06;5084433;28;19946;-62
2022/01/30 07:05:57;;;;;;;;;;;;;;;0.53;66.86;96894.94;5085165;28;19928;-62
2022/01/30 07:08:23;;;;;;;;;;;;;;;0.85;64.82;96908.31;5085779;28;19924;-62
2022/01/30 07:10:50;;;;;;;;;;;;;;;1.17;63.85;96899.81;5080602;28;19924;-60
2022/01/30 07:13:16;;;;;;;;;;;;;;;1.27;63.82;96890.53;5065877;28;19932;-63
2022/01/30 07:15:43;;;;;;;;;;;;;;;1.49;64.41;96902.19;5065254;28;20311;-60
2022/01/30 07:18:09;;;;;;;;;;;;;;;1.49;63.19;96885.81;5064168;28;20077;-62
2022/01/30 07:20:36;;;;;;;;;;;;;;;1.58;63.50;96868.69;5063823;28;19932;-63
2022/01/30 07:23:03;;;;;;;;;;;;;;;1.35;64.09;96879.69;5064955;28;20372;-62
2022/01/30 07:25:29;;;;;;;;;;;;;;;-0.59;63.83;96535.25;5065107;28;20007;-62
2022/01/30 07:27:56;;;;;;;;;;;;;;;1.46;64.53;96874.72;5065331;28;19935;-60
2022/01/30 07:30:23;;;;;;;;;;;;;;;1.52;64.93;96865.28;5065666;28;19924;-61
2022/01/30 07:32:49;;;;;;;;;;;;;;;1.22;64.63;96869.66;5065290;28;20471;-61
2022/01/30 07:35:17;;;;;;;;;;;;;;;1.26;65.81;96867.94;5064535;28;19931;-63
2022/01/30 07:37:44;;;;;;;;;;;;;;;0.30;68.85;96874.25;5065104;28;20446;-62
2022/01/30 07:40:12;;;;;;;;;;;;;;;0.80;66.61;96856.66;5064689;28;20371;-60
2022/01/30 07:42:38;;;;;;;;;;;;;;;0.89;67.49;96852.03;5064907;28;19928;-61
2022/01/30 07:45:05;;;;;;;;;;;;;;;1.08;67.27;96859.97;5063772;28;19931;-60
2022/01/30 07:47:32;;;;;;;;;;;;;;;1.09;68.57;96859.66;5063854;28;19924;-61
2022/01/30 07:49:58;;;;;;;;;;;;;;;1.14;69.20;96851.34;5065187;28;19928;-61
2022/01/30 07:52:25;;;;;;;;;;;;;;;1.14;70.39;96845.06;5064437;28;20402;-63
2022/01/30 07:54:51;;;;;;;;;;;;;;;1.31;69.67;96840.50;5064755;28;19924;-63
2022/01/30 07:57:19;;;;;;;;;;;;;;;1.58;69.55;96844.09;5064740;28;19928;-62
2022/01/30 07:59:46;;;;;;;;;;;;;;;1.92;67.52;96833.22;5064683;28;19943;-62
2022/01/30 08:02:12;;;;;;;;;;;;;;;2.18;64.98;96847.72;5062848;28;19924;-64
2022/01/30 08:04:39;;;;;;;;;;;;;;;2.23;64.94;96842.09;5064737;28;19924;-62
2022/01/30 08:07:07;;;;;;;;;;;;;;;2.38;64.07;96836.13;5064581;28;19924;-60
2022/01/30 08:09:36;;;;;;;;;;;;;;;2.78;64.48;96840.25;5064206;28;20292;-60
2022/01/30 08:12:03;;;;;;;;;;;;;;;3.16;64.07;96830.16;5064000;28;20399;-61
2022/01/30 08:14:29;;;;;;;;;;;;;;;3.49;61.08;96817.44;5064051;28;19924;-62
2022/01/30 08:16:56;;;;;;;;;;;;;;;3.59;60.21;96822.53;5063939;28;19928;-64
2022/01/30 08:19:25;;;;;;;;;;;;;;;3.68;60.26;96831.53;5062566;28;19924;-61
2022/01/30 08:21:52;;;;;;;;;;;;;;;3.96;60.44;96816.19;5064352;28;19924;-60
2022/01/30 08:24:19;;;;;;;;;;;;;;;3.89;60.09;96832.34;5064495;28;19928;-62
2022/01/30 08:26:46;;;;;;;;;;;;;;;3.78;59.93;96830.34;5064740;28;19924;-60
2022/01/30 08:29:12;;;;;;;;;;;;;;;3.72;60.16;96813.28;5063989;28;19931;-62
2022/01/30 08:31:39;;;;;;;;;;;;;;;3.75;59.88;96815.34;5063977;28;19928;-63
2022/01/30 08:34:06;;;;;;;;;;;;;;;3.89;58.53;96812.38;5064369;28;20399;-60
2022/01/30 08:36:32;;;;;;;;;;;;;;;4.07;57.79;96794.66;5064061;28;19929;-61
2022/01/30 08:38:59;;;;;;;;;;;;;;;4.22;58.16;96786.63;5064336;28;19928;-62
2022/01/30 08:41:25;;;;;;;;;;;;;;;4.48;55.89;96778.97;5064557;28;19974;-61
2022/01/30 08:43:52;;;;;;;;;;;;;;;4.65;53.69;96762.34;5063094;28;20384;-63
2022/01/30 08:46:20;;;;;;;;;;;;;;;4.88;53.62;96770.16;5064310;28;20310;-62
2022/01/30 08:48:47;;;;;;;;;;;;;;;4.99;51.88;96782.28;5064220;28;19942;-62
2022/01/30 08:51:13;;;;;;;;;;;;;;;5.06;52.28;96755.88;5063795;28;19924;-64
2022/01/30 08:53:41;;;;;;;;;;;;;;;5.07;51.53;96767.66;5062538;28;20039;-64
2022/01/30 08:56:07;;;;;;;;;;;;;;;5.01;51.44;96763.56;5063999;28;19924;-64
2022/01/30 08:58:34;;;;;;;;;;;;;;;4.53;51.49;96770.53;5064265;28;19925;-63
2022/01/30 09:01:01;;;;;;;;;;;;;;;4.41;52.22;96777.94;5064315;28;19925;-64
2022/01/30 09:03:28;;;;;;;;;;;;;;;4.41;52.70;96740.31;5062426;28;20027;-62
2022/01/30 09:05:56;;;;;;;;;;;;;;;4.60;52.68;96732.38;5062408;28;19924;-63
2022/01/30 09:08:28;;;;;;;;;;;;;;;5.07;50.72;96737.47;5062721;28;20133;-61
2022/01/30 09:10:57;;;;;;;;;;;;;;;5.48;50.55;96729.00;5063657;28;19925;-64
2022/01/30 09:13:24;;;;;;;;;;;;;;;5.79;50.92;96729.16;5062379;28;20035;-63
2022/01/30 09:15:56;;;;;;;;;;;;;;;5.83;48.05;96746.59;5061919;28;19924;-64
2022/01/30 09:18:25;;;;;;;;;;;;;;;5.76;51.33;96754.59;5063865;28;19928;-63
2022/01/30 09:20:52;;;;;;;;;;;;;;;4.69;52.36;96757.75;5064344;28;19931;-63
2022/01/30 09:23:20;;;;;;;;;;;;;;;4.13;52.24;96744.78;5063625;28;19928;-61
2022/01/30 09:25:47;;;;;;;;;;;;;;;4.81;51.32;96756.19;5063705;28;19924;-63
2022/01/30 09:28:14;;;;;;;;;;;;;;;5.25;50.85;96725.13;5063859;28;20318;-63
2022/01/30 09:30:41;;;;;;;;;;;;;;;5.64;47.69;96721.66;5066706;28;19923;-63
2022/01/30 09:33:07;;;;;;;;;;;;;;;5.70;47.95;96704.59;5067191;28;19931;-61
2022/01/30 09:35:37;;;;;;;;;;;;;;;5.47;50.34;96705.44;5065708;28;19931;-63
2022/01/30 09:38:04;;;;;;;;;;;;;;;5.28;50.14;96724.44;5082794;28;19932;-61
2022/01/30 09:40:31;;;;;;;;;;;;;;;5.20;50.97;96706.16;5065593;28;19924;-61
2022/01/30 09:42:58;;;;;;;;;;;;;;;5.38;50.72;96699.25;5065792;28;19924;-59
2022/01/30 09:45:25;;;;;;;;;;;;;;;5.17;50.11;96690.38;5065692;28;19931;-62
2022/01/30 09:47:52;;;;;;;;;;;;;;;5.04;49.93;96707.97;5065484;28;19924;-63
2022/01/30 09:50:20;;;;;;;;;;;;;;;4.29;51.06;96710.13;5065466;28;19924;-63
2022/01/30 09:52:47;;;;;;;;;;;;;;;4.53;51.61;96693.75;5065660;28;19924;-60
2022/01/30 09:55:15;;;;;;;;;;;;;;;4.64;52.76;96683.13;5066962;28;20050;-61
2022/01/30 09:57:43;;;;;;;;;;;;;;;4.55;51.77;96683.22;5067044;28;20011;-63
2022/01/30 10:00:10;;;;;;;;;;;;;;;4.55;51.95;96664.03;5065314;28;20047;-62
2022/01/30 10:02:39;;;;;;;;;;;;;;;4.66;51.80;96631.47;5065176;28;19924;-63
2022/01/30 10:05:06;;;;;;;;;;;;;;;4.72;51.74;96640.28;5067023;28;19924;-62
2022/01/30 10:07:50;;;;;;;;;;;;;;;5.01;50.55;96648.28;5066587;28;20481;-63
2022/01/30 10:10:19;;;;;;;;;;;;;;;4.87;49.18;96658.81;5066745;28;19931;-63
2022/01/30 10:13:01;;;;;;;;;;;;;;;5.15;49.28;96645.97;5066368;28;20387;-63
2022/01/30 10:15:28;;;;;;;;;;;;;;;5.32;46.91;96648.47;5065021;28;19924;-64
2022/01/30 10:17:55;;;;;;;;;;;;;;;5.03;47.87;96635.81;5065339;28;19925;-63
2022/01/30 10:20:38;;;;;;;;;;;;;;;5.45;49.03;96620.66;5065667;28;20338;-63
2022/01/30 10:23:09;;;;;;;;;;;;;;;5.41;48.31;96629.91;5065121;28;19924;-60
2022/01/30 10:25:48;;;;;;;;;;;;;;;5.78;47.44;96595.66;5066538;28;19943;-60
2022/01/30 10:28:16;;;;;;;;;;;;;;;6.22;46.06;96610.25;5066158;28;19924;-59
2022/01/30 10:30:42;;;;;;;;;;;;;;;6.36;45.15;96608.66;5066175;28;19931;-62
2022/01/30 10:33:09;;;;;;;;;;;;;;;6.78;44.85;96590.47;5066185;28;19925;-63
2022/01/30 10:35:45;;;;;;;;;;;;;;;7.15;43.02;96583.47;5065574;28;19947;-62
2022/01/30 10:38:25;;;;;;;;;;;;;;;7.35;43.26;96571.31;5065759;28;19924;-58
2022/01/30 10:41:23;;;;;;;;;;;;;;;7.29;44.19;96567.25;5064072;28;19939;-62
2022/01/30 10:43:52;;;;;;;;;;;;;;;7.28;42.75;96565.69;5061963;28;19924;-61
2022/01/30 10:46:20;;;;;;;;;;;;;;;6.83;43.28;96532.38;5066358;28;19936;-60
2022/01/30 10:48:52;;;;;;;;;;;;;;;7.25;44.64;96514.06;5065023;28;20014;-63
2022/01/30 10:51:19;;;;;;;;;;;;;;;7.37;43.53;96522.19;5066047;28;19924;-63
2022/01/30 10:53:49;;;;;;;;;;;;;;;6.92;44.47;96563.28;5066594;28;19925;-63
2022/01/30 10:56:20;;;;;;;;;;;;;;;6.57;44.66;96545.94;5066079;28;19924;-60
2022/01/30 10:59:06;;;;;;;;;;;;;;;6.93;42.84;96537.34;5065882;28;20400;-63
2022/01/30 11:01:33;;;;;;;;;;;;;;;6.63;42.89;96528.00;5064647;28;20448;-64
2022/01/30 11:04:03;;;;;;;;;;;;;;;6.67;43.58;96517.84;5064816;28;20017;-61
2022/01/30 11:06:30;;;;;;;;;;;;;;;7.12;40.90;96495.25;5066382;28;19931;-62
2022/01/30 11:09:14;;;;;;;;;;;;;;;7.43;40.92;96479.41;5065838;28;19931;-65
2022/01/30 11:11:46;;;;;;;;;;;;;;;7.64;40.68;96485.31;5078886;28;19928;-60
2022/01/30 11:14:16;;;;;;;;;;;;;;;8.29;40.11;96466.00;5084387;28;19930;-62
2022/01/30 11:16:58;;;;;;;;;;;;;;;8.02;39.78;96464.31;5085446;28;19966;-59
2022/01/30 11:19:26;;;;;;;;;;;;;;;8.58;39.25;96468.06;5085973;28;19930;-63
2022/01/30 11:21:55;;;;;;;;;;;;;;;8.48;40.10;96430.84;5086363;28;20356;-60
2022/01/30 11:24:23;;;;;;;;;;;;;;;8.23;39.64;96390.25;5085444;28;19930;-63
2022/01/30 11:26:50;;;;;;;;;;;;;;;8.78;39.68;96417.06;5085729;28;19971;-61
2022/01/30 11:29:20;;;;;;;;;;;;;;;8.98;38.67;96412.97;5085345;28;19924;-61
2022/01/30 11:31:47;;;;;;;;;;;;;;;9.03;39.06;96423.72;5083886;28;20022;-61
2022/01/30 11:34:14;;;;;;;;;;;;;;;8.27;39.70;96418.66;5085315;28;19938;-66
2022/01/30 11:36:47;;;;;;;;;;;;;;;8.14;41.12;96409.78;5083890;28;19924;-62
2022/01/30 11:39:20;;;;;;;;;;;;;;;8.24;40.77;96413.91;5085619;28;19924;-63
2022/01/30 11:42:13;;;;;;;;;;;;;;;8.02;41.33;96434.00;5083341;28;19967;-62
2022/01/30 11:44:40;;;;;;;;;;;;;;;8.58;42.06;96434.94;5083234;28;20099;-62
2022/01/30 11:47:08;;;;;;;;;;;;;;;8.22;41.49;96366.56;5084866;28;19924;-64
2022/01/30 11:49:37;;;;;;;;;;;;;;;8.75;41.45;96420.59;5085096;28;19924;-64
2022/01/30 11:52:06;;;;;;;;;;;;;;;9.10;39.98;96412.75;5083585;28;19924;-63
2022/01/30 11:55:05;;;;;;;;;;;;;;;9.06;40.36;96411.91;5084802;28;20534;-64
2022/01/30 11:57:32;;;;;;;;;;;;;;;9.03;40.60;96412.66;5050087;28;19931;-61
2022/01/30 12:00:00;;;;;;;;;;;;;;;9.18;41.19;96414.44;5085137;28;19924;-61
2022/01/30 12:02:29;;;;;;;;;;;;;;;9.21;40.83;96403.41;5083720;28;20199;-60
2022/01/30 12:04:57;;;;;;;;;;;;;;;9.32;41.01;96411.84;5085099;28;20023;-64
2022/01/30 12:07:42;;;;;;;;;;;;;;;9.24;41.49;96385.31;5085130;28;19924;-64
2022/01/30 12:10:21;;;;;;;;;;;;;;;9.19;41.30;96369.06;5084411;28;19924;-61
2022/01/30 12:12:51;;;;;;;;;;;;;;;9.17;41.31;96346.53;5064449;28;19930;-64
2022/01/30 12:15:37;;;;;;;;;;;;;;;9.12;41.30;96355.16;5062977;28;19924;-66
2022/01/30 12:18:05;;;;;;;;;;;;;;;8.96;42.08;96365.63;5064315;28;19924;-61
2022/01/30 12:20:51;;;;;;;;;;;;;;;8.91;42.85;96365.97;5064737;28;19963;-62
2022/01/30 12:23:28;;;;;;;;;;;;;;;8.84;42.37;96371.38;5064497;28;19931;-61
2022/01/30 12:26:03;;;;;;;;;;;;;;;8.91;42.34;96377.00;5062382;28;19925;-59
2022/01/30 12:28:41;;;;;;;;;;;;;;;8.92;42.77;96378.59;5063901;28;19924;-61
2022/01/30 12:31:25;;;;;;;;;;;;;;;8.95;42.40;96355.75;5064083;28;19924;-59
2022/01/30 12:34:05;;;;;;;;;;;;;;;9.00;42.50;96352.66;5064345;28;20009;-60
2022/01/30 12:36:37;;;;;;;;;;;;;;;9.22;42.56;96354.47;5064497;28;19925;-60
2022/01/30 12:39:08;;;;;;;;;;;;;;;9.37;41.58;96353.47;5064680;28;19931;-64
2022/01/30 12:41:35;;;;;;;;;;;;;;;9.32;42.00;96342.75;5063094;28;20004;-59
2022/01/30 12:44:06;;;;;;;;;;;;;;;9.37;42.63;96328.59;5064105;28;19931;-63
2022/01/30 12:46:38;;;;;;;;;;;;;;;9.43;41.63;96332.59;5062688;28;19924;-63
2022/01/30 12:49:12;;;;;;;;;;;;;;;9.62;42.05;96348.97;5064205;28;19924;-59
2022/01/30 12:51:39;;;;;;;;;;;;;;;9.70;41.66;96328.50;5064460;28;19925;-64
2022/01/30 12:54:07;;;;;;;;;;;;;;;9.64;41.80;96354.91;5064125;28;20290;-61
2022/01/30 12:56:36;;;;;;;;;;;;;;;9.81;41.82;96348.75;5062716;28;20019;-63
2022/01/30 12:59:07;;;;;;;;;;;;;;;9.97;40.88;96345.72;5064333;28;19928;-63
2022/01/30 13:01:44;;;;;;;;;;;;;;;9.96;41.96;96344.91;5062917;28;19928;-61
2022/01/30 13:04:15;;;;;;;;;;;;;;;9.99;41.66;96338.63;5066710;28;20179;-61
2022/01/30 13:06:47;;;;;;;;;;;;;;;9.96;42.35;96339.38;5068875;28;19925;-61
2022/01/30 13:09:22;;;;;;;;;;;;;;;9.78;42.72;96355.06;5070383;28;19924;-60
2022/01/30 13:11:52;;;;;;;;;;;;;;;9.77;43.04;96358.97;5081503;28;19969;-61
2022/01/30 13:14:19;;;;;;;;;;;;;;;9.98;43.40;96353.63;5090769;28;19928;-65
2022/01/30 13:16:47;;;;;;;;;;;;;;;9.85;43.33;96357.88;5090498;28;19931;-60
2022/01/30 13:19:31;;;;;;;;;;;;;;;9.80;42.50;96349.91;5089315;28;19969;-65
2022/01/30 13:21:58;;;;;;;;;;;;;;;9.88;42.40;96334.97;5089300;28;20380;-60
2022/01/30 13:24:25;;;;;;;;;;;;;;;9.79;42.90;96353.88;5090701;28;20306;-60
2022/01/30 13:27:05;;;;;;;;;;;;;;;9.77;43.09;96347.91;5090739;28;19939;-60
2022/01/30 13:29:34;;;;;;;;;;;;;;;9.81;42.29;96332.16;5090549;28;19924;-61
2022/01/30 13:32:05;;;;;;;;;;;;;;;9.88;42.72;96342.50;5090844;28;19924;-62
2022/01/30 13:34:33;;;;;;;;;;;;;;;9.87;43.17;96325.09;5090883;28;19931;-63
2022/01/30 13:37:10;;;;;;;;;;;;;;;9.86;43.21;96329.03;5090886;28;19924;-65
2022/01/30 13:39:39;;;;;;;;;;;;;;;9.98;42.64;96319.63;5091108;28;20029;-63
2022/01/30 13:42:30;;;;;;;;;;;;;;;10.02;42.57;96312.16;5090655;28;19924;-62
2022/01/30 13:47:49;;;;;;;;;;;;;;;9.87;41.87;96318.75;5090303;28;19924;-63
2022/01/30 13:50:17;;;;;;;;;;;;;;;9.95;42.02;96304.59;5090195;28;19924;-64
2022/01/30 13:52:44;;;;;;;;;;;;;;;9.91;42.18;96325.91;5089214;28;19955;-64
2022/01/30 13:55:11;;;;;;;;;;;;;;;9.78;42.41;96310.81;5089973;28;19928;-65
2022/01/30 13:57:39;;;;;;;;;;;;;;;9.81;43.02;96334.13;5090174;28;19930;-64
2022/01/30 14:00:12;;;;;;;;;;;;;;;9.72;43.85;96323.38;5090526;28;20049;-59
2022/01/30 14:02:55;;;;;;;;;;;;;;;9.66;43.51;96297.25;5090521;28;20022;-59
2022/01/30 14:05:25;;;;;;;;;;;;;;;9.69;44.09;96312.31;5088701;28;20037;-64
2022/01/30 14:07:53;;;;;;;;;;;;;;;9.69;42.85;96307.53;5090046;28;19931;-60
2022/01/30 14:10:22;;;;;;;;;;;;;;;9.72;43.26;96295.72;5089874;28;19924;-65
2022/01/30 14:12:50;;;;;;;;;;;;;;;9.73;42.99;96324.97;5088778;28;20453;-64